KSMX/SMX METAR and TAF weather

Enter ICAO airport designator
Station Type Date Time Source
KSMX METAR 2019/09/21 04:51 UTC NOAA

KSMX 210451Z AUTO 00000KT 10SM CLR 17/09 A2990 RMK AO2 SLP124 T01670094


Station Type Date Time Source
KSMX Decoded METAR 2019/09/21 04:51 UTC NOAA

SANTA MARIA PUBLIC AIRPORT, CA, United States (KSMX) 34-54N 120-28W 74M
Sep 21, 2019 - 12:51 AM EDT / 2019.09.21 0451 UTC
Wind: Calm:0
Visibility: 10 mile(s):0
Sky conditions: clear
Temperature: 62.1 F (16.7 C)
Dew Point: 48.9 F (9.4 C)
Relative Humidity: 62%
Pressure (altimeter): 29.9 in. Hg (1012 hPa)
ob: KSMX 210451Z AUTO 00000KT 10SM CLR 17/09 A2990 RMK AO2 SLP124 T01670094
cycle: 5

Station Type Date Time Source
KSMX TAF 2019/09/21 02:30 UTC NOAA

TAF
AMD KSMX 210228Z 2102/2124 30010KT P6SM SKC
FM210400 32006KT P6SM SKC
FM211000 VRB03KT 6SM HZ SKC
FM211400 05005KT P6SM SKC
FM211700 33007KT P6SM SKC
FM212100 31013KT P6SM SKC

Example: see airport list